Time;durP1;ratioP1;P1;durP2;ratioP2;P2;SDS_P1;SDS_P2;PMS_P1;PMS_P2;Temp;Humidity;BMP_temperature;BMP_pressure;BME280_temperature;BME280_humidity;BME280_pressure;Samples;Min_cycle;Max_cycle;Signal;HPM_P1;HPM_P2
2021/03/17 00:02:37;;;;;;;;;;;;;;;21.59;27.42;96110.69;5059303;28;591;-74
2021/03/17 00:05:21;;;;;;;;;;;;;;;22.17;26.82;96118.78;5059008;28;1906;-74
2021/03/17 00:08:06;;;;;;;;;;;;;;;22.43;26.04;96124.53;5059202;28;520;-73
2021/03/17 00:10:50;;;;;;;;;;;;;;;22.21;26.30;96114.47;5058992;28;842;-73
2021/03/17 00:13:34;;;;;;;;;;;;;;;21.79;26.69;96112.81;5059688;28;993;-74
2021/03/17 00:16:17;;;;;;;;;;;;;;;21.25;27.65;96109.38;5062399;28;1541;-74
2021/03/17 00:19:02;;;;;;;;;;;;;;;21.52;27.42;96110.34;5062744;28;744;-74
2021/03/17 00:21:45;;;;;;;;;;;;;;;21.58;27.37;96102.72;5062228;28;603;-73
2021/03/17 00:24:29;;;;;;;;;;;;;;;21.55;27.63;96103.69;5062562;28;1985;-74
2021/03/17 00:27:13;;;;;;;;;;;;;;;21.54;27.42;96102.91;5062038;28;1608;-74
2021/03/17 00:29:57;;;;;;;;;;;;;;;22.02;26.60;96099.78;5062301;28;857;-74
2021/03/17 00:32:41;;;;;;;;;;;;;;;22.36;26.10;96098.19;5062685;28;682;-74
2021/03/17 00:35:26;;;;;;;;;;;;;;;22.17;26.35;96088.41;5062405;28;579;-74
2021/03/17 00:38:10;;;;;;;;;;;;;;;21.77;26.90;96086.28;5042718;28;599;-74
2021/03/17 00:40:54;;;;;;;;;;;;;;;21.57;27.10;96084.19;5042414;28;586;-74
2021/03/17 00:43:38;;;;;;;;;;;;;;;21.85;27.31;96079.69;5042251;28;1871;-74
2021/03/17 00:46:22;;;;;;;;;;;;;;;22.15;26.40;96076.78;5044785;28;1570;-74
2021/03/17 00:48:53;;;;;;;;;;;;;;;22.44;26.21;96077.94;5061924;28;1597;-74
2021/03/17 00:51:24;;;;;;;;;;;;;;;22.28;25.88;96076.47;5062171;28;1696;-74
2021/03/17 00:54:09;;;;;;;;;;;;;;;21.76;26.70;96071.34;5062142;28;575;-74
2021/03/17 00:56:38;;;;;;;;;;;;;;;21.74;26.72;96065.38;5061795;28;1802;-73
2021/03/17 00:59:04;;;;;;;;;;;;;;;21.67;27.20;96065.81;5060414;28;1521;-74
2021/03/17 01:01:29;;;;;;;;;;;;;;;22.13;26.68;96058.75;5061515;28;1814;-73
2021/03/17 01:03:54;;;;;;;;;;;;;;;22.57;25.96;96061.31;5061731;28;1894;-74
2021/03/17 01:06:20;;;;;;;;;;;;;;;22.50;25.45;96067.44;5062085;28;603;-74
2021/03/17 01:08:46;;;;;;;;;;;;;;;22.12;25.92;96057.94;5061681;28;1617;-74
2021/03/17 01:11:11;;;;;;;;;;;;;;;21.83;26.20;96062.44;5061853;28;672;-74
2021/03/17 01:13:37;;;;;;;;;;;;;;;21.85;26.68;96061.94;5061341;28;954;-74
2021/03/17 01:16:02;;;;;;;;;;;;;;;21.68;27.12;96058.88;5061319;28;1625;-74
2021/03/17 01:18:28;;;;;;;;;;;;;;;21.62;27.18;96063.69;5061608;28;917;-74
2021/03/17 01:20:53;;;;;;;;;;;;;;;21.69;27.13;96066.09;5061640;28;676;-73
2021/03/17 01:23:19;;;;;;;;;;;;;;;21.55;27.30;96066.91;5061536;28;709;-74
2021/03/17 01:25:44;;;;;;;;;;;;;;;21.71;27.44;96065.59;5061351;28;641;-74
2021/03/17 01:28:10;;;;;;;;;;;;;;;22.29;26.17;96063.84;5043298;28;1661;-74
2021/03/17 01:30:37;;;;;;;;;;;;;;;22.48;26.00;96065.09;5061107;28;885;-74
2021/03/17 01:33:02;;;;;;;;;;;;;;;22.30;25.94;96059.72;5061254;28;862;-74
2021/03/17 01:35:28;;;;;;;;;;;;;;;21.57;26.78;96058.72;5061357;28;677;-74
2021/03/17 01:37:53;;;;;;;;;;;;;;;21.62;26.70;96045.91;5061068;28;1570;-74
2021/03/17 01:40:19;;;;;;;;;;;;;;;21.62;27.02;96055.19;5061485;28;634;-74
2021/03/17 01:42:45;;;;;;;;;;;;;;;22.08;26.62;96048.88;5060990;28;969;-74
2021/03/17 01:45:11;;;;;;;;;;;;;;;22.32;26.08;96052.28;5060747;28;1971;-74
2021/03/17 01:47:37;;;;;;;;;;;;;;;22.59;25.79;96053.13;5060660;28;1574;-74
2021/03/17 01:50:04;;;;;;;;;;;;;;;22.07;26.05;96052.94;5060238;28;1628;-74
2021/03/17 01:52:30;;;;;;;;;;;;;;;22.06;25.92;96045.75;5060909;28;1589;-74
2021/03/17 01:54:55;;;;;;;;;;;;;;;21.80;26.67;96052.09;5060910;28;658;-74
2021/03/17 01:57:20;;;;;;;;;;;;;;;21.80;26.83;96040.75;5060860;28;874;-73
2021/03/17 01:59:46;;;;;;;;;;;;;;;21.73;26.81;96046.06;5060601;28;922;-74
2021/03/17 02:02:12;;;;;;;;;;;;;;;21.56;27.37;96055.09;5060735;28;1546;-74
2021/03/17 02:04:37;;;;;;;;;;;;;;;21.55;27.42;96052.75;5060602;28;1910;-73
2021/03/17 02:07:03;;;;;;;;;;;;;;;21.68;27.02;96050.38;5060722;28;595;-74
2021/03/17 02:09:28;;;;;;;;;;;;;;;22.26;26.13;96062.00;5060984;28;626;-74
2021/03/17 02:12:14;;;;;;;;;;;;;;;22.42;26.10;96055.75;5060130;28;1574;-74
2021/03/17 02:14:49;;;;;;;;;;;;;;;22.21;26.17;96052.16;5059449;28;1725;-74
2021/03/17 02:17:16;;;;;;;;;;;;;;;21.74;26.90;96051.22;5060630;28;618;-74
2021/03/17 02:19:54;;;;;;;;;;;;;;;21.37;27.00;96048.13;5060406;28;654;-74
2021/03/17 02:22:33;;;;;;;;;;;;;;;21.55;27.25;96052.75;5060295;28;1621;-74
2021/03/17 02:25:34;;;;;;;;;;;;;;;21.58;27.10;96051.78;5059663;28;1975;-74
2021/03/17 02:28:11;;;;;;;;;;;;;;;21.52;27.36;96048.09;5038719;28;1088;-74
2021/03/17 02:30:37;;;;;;;;;;;;;;;21.69;26.94;96046.28;5038687;28;978;-73
2021/03/17 02:33:21;;;;;;;;;;;;;;;21.63;27.20;96042.59;5029284;28;1641;-74
2021/03/17 02:35:51;;;;;;;;;;;;;;;22.24;26.13;96039.84;5026135;28;1036;-74
2021/03/17 02:38:16;;;;;;;;;;;;;;;22.45;25.77;96042.66;5040019;28;662;-73
2021/03/17 02:40:42;;;;;;;;;;;;;;;22.41;26.04;96036.41;5040472;28;905;-74
2021/03/17 02:43:08;;;;;;;;;;;;;;;21.56;26.66;96043.00;5029649;28;1666;-74
2021/03/17 02:45:40;;;;;;;;;;;;;;;21.76;26.51;96028.91;5059735;28;1981;-75
2021/03/17 02:48:07;;;;;;;;;;;;;;;21.77;26.55;96041.78;5042345;28;854;-73
2021/03/17 02:50:33;;;;;;;;;;;;;;;21.92;26.84;96046.59;5059944;28;619;-74
2021/03/17 02:52:58;;;;;;;;;;;;;;;22.44;25.75;96041.09;5042382;28;1640;-73
2021/03/17 02:55:25;;;;;;;;;;;;;;;22.57;25.54;96042.25;5042518;28;1617;-74
2021/03/17 02:57:54;;;;;;;;;;;;;;;22.32;25.77;96040.94;5058665;28;1525;-74
2021/03/17 03:00:19;;;;;;;;;;;;;;;21.93;25.96;96031.16;5042290;28;942;-74
2021/03/17 03:02:45;;;;;;;;;;;;;;;21.79;26.30;96032.78;5059694;28;864;-74
2021/03/17 03:05:12;;;;;;;;;;;;;;;21.68;26.51;96030.56;5042102;28;1991;-74
2021/03/17 03:07:37;;;;;;;;;;;;;;;21.88;26.79;96037.53;5060019;28;733;-74
2021/03/17 03:10:05;;;;;;;;;;;;;;;21.75;26.80;96032.19;5060069;28;691;-74
2021/03/17 03:12:30;;;;;;;;;;;;;;;21.65;26.74;96028.72;5059757;28;846;-74
2021/03/17 03:14:56;;;;;;;;;;;;;;;21.65;26.90;96039.25;5058933;28;1620;-77
2021/03/17 03:17:21;;;;;;;;;;;;;;;21.64;26.73;96044.13;5059927;28;846;-74
2021/03/17 03:19:48;;;;;;;;;;;;;;;21.55;27.14;96047.09;5059359;28;1502;-74
2021/03/17 03:22:13;;;;;;;;;;;;;;;21.41;27.04;96042.25;5059666;28;643;-74
2021/03/17 03:24:39;;;;;;;;;;;;;;;21.67;27.02;96043.16;5059371;28;1969;-74
2021/03/17 03:27:05;;;;;;;;;;;;;;;22.37;25.98;96042.28;5038976;28;976;-74
2021/03/17 03:29:30;;;;;;;;;;;;;;;22.45;25.67;96042.66;5021948;28;948;-74
2021/03/17 03:31:56;;;;;;;;;;;;;;;22.59;25.22;96033.28;5039836;28;858;-74
2021/03/17 03:34:21;;;;;;;;;;;;;;;21.97;25.93;96045.91;5039610;28;702;-73
2021/03/17 03:36:47;;;;;;;;;;;;;;;21.58;26.49;96038.41;5052986;28;1656;-74
2021/03/17 03:39:13;;;;;;;;;;;;;;;21.67;26.29;96042.38;5059666;28;602;-74
2021/03/17 03:41:38;;;;;;;;;;;;;;;22.10;26.14;96041.44;5059740;28;806;-74
2021/03/17 03:44:04;;;;;;;;;;;;;;;22.31;25.71;96039.38;5059354;28;1906;-74
2021/03/17 03:46:30;;;;;;;;;;;;;;;22.50;25.18;96044.75;5059477;28;1613;-74
2021/03/17 03:48:55;;;;;;;;;;;;;;;22.07;25.95;96041.63;5043251;28;1672;-74
2021/03/17 03:51:21;;;;;;;;;;;;;;;21.72;25.78;96039.63;5045983;28;698;-73
2021/03/17 03:53:49;;;;;;;;;;;;;;;21.72;26.20;96036.81;5045648;28;961;-74
2021/03/17 03:56:22;;;;;;;;;;;;;;;21.93;26.59;96031.16;5045739;28;1743;-74
2021/03/17 03:59:02;;;;;;;;;;;;;;;22.38;25.73;96040.22;5062232;28;1678;-74
2021/03/17 04:01:29;;;;;;;;;;;;;;;22.63;25.49;96037.44;5062965;28;1625;-74
2021/03/17 04:03:55;;;;;;;;;;;;;;;22.22;25.91;96042.38;5062975;28;1977;-74
2021/03/17 04:06:21;;;;;;;;;;;;;;;21.65;26.56;96034.38;5045353;28;826;-74
2021/03/17 04:08:49;;;;;;;;;;;;;;;21.84;26.32;96034.91;5062902;28;1656;-74
2021/03/17 04:11:16;;;;;;;;;;;;;;;21.71;26.74;96040.91;5045667;28;1064;-73
2021/03/17 04:13:41;;;;;;;;;;;;;;;22.38;25.78;96037.41;5063080;28;819;-74
2021/03/17 04:16:07;;;;;;;;;;;;;;;22.69;25.42;96034.69;5062682;28;1154;-74
2021/03/17 04:18:34;;;;;;;;;;;;;;;22.19;25.77;96034.88;5062595;28;1672;-74
2021/03/17 04:21:03;;;;;;;;;;;;;;;21.73;26.47;96041.19;5062720;28;1639;-74
2021/03/17 04:23:29;;;;;;;;;;;;;;;21.70;26.51;96042.16;5062856;28;1988;-74
2021/03/17 04:25:54;;;;;;;;;;;;;;;21.68;26.63;96038.28;5062575;28;1110;-74
2021/03/17 04:28:24;;;;;;;;;;;;;;;22.08;26.40;96037.53;5061854;28;1717;-74
2021/03/17 04:30:50;;;;;;;;;;;;;;;22.39;25.85;96051.09;5062813;28;969;-74
2021/03/17 04:33:15;;;;;;;;;;;;;;;22.46;25.28;96047.81;5062453;28;626;-74
2021/03/17 04:35:41;;;;;;;;;;;;;;;21.87;26.35;96041.66;5061818;28;737;-74
2021/03/17 04:38:07;;;;;;;;;;;;;;;21.79;26.39;96047.72;5062007;28;1593;-74
2021/03/17 04:40:32;;;;;;;;;;;;;;;21.48;26.93;96039.78;5062191;28;1553;-73
2021/03/17 04:42:58;;;;;;;;;;;;;;;22.06;26.38;96045.75;5061395;28;899;-74
2021/03/17 04:45:23;;;;;;;;;;;;;;;22.40;25.68;96040.53;5062152;28;1902;-74
2021/03/17 04:47:51;;;;;;;;;;;;;;;22.70;25.09;96046.78;5062274;28;662;-73
2021/03/17 04:50:17;;;;;;;;;;;;;;;22.14;25.99;96046.91;5061647;28;1623;-73
2021/03/17 04:52:43;;;;;;;;;;;;;;;21.85;26.16;96042.88;5044837;28;635;-74
2021/03/17 04:55:08;;;;;;;;;;;;;;;21.81;26.34;96053.66;5061793;28;983;-74
2021/03/17 04:57:35;;;;;;;;;;;;;;;21.65;26.79;96045.69;5061720;28;1470;-74
2021/03/17 05:00:00;;;;;;;;;;;;;;;21.43;27.08;96039.72;5043125;28;1395;-73
2021/03/17 05:02:29;;;;;;;;;;;;;;;21.62;26.85;96043.09;5044167;28;1100;-74
2021/03/17 05:04:55;;;;;;;;;;;;;;;21.76;26.91;96045.06;5062184;28;1973;-74
2021/03/17 05:07:21;;;;;;;;;;;;;;;21.62;26.76;96046.69;5061032;28;1516;-74
2021/03/17 05:09:47;;;;;;;;;;;;;;;21.77;26.76;96044.59;5061219;28;1358;-74
2021/03/17 05:12:16;;;;;;;;;;;;;;;22.20;25.89;96058.31;5061650;28;1081;-74
2021/03/17 05:14:41;;;;;;;;;;;;;;;22.39;25.96;96050.31;5040978;28;1184;-74
2021/03/17 05:17:07;;;;;;;;;;;;;;;22.18;25.89;96044.66;5041565;28;1458;-73
2021/03/17 05:19:32;;;;;;;;;;;;;;;22.15;25.86;96051.31;5042009;28;618;-74
2021/03/17 05:21:58;;;;;;;;;;;;;;;22.04;25.77;96043.41;5040701;28;814;-74
2021/03/17 05:24:24;;;;;;;;;;;;;;;21.96;26.29;96052.81;5041253;28;1965;-73
2021/03/17 05:26:49;;;;;;;;;;;;;;;21.93;26.53;96048.16;5040512;28;799;-73
2021/03/17 05:29:16;;;;;;;;;;;;;;;21.91;26.59;96050.69;5040624;28;685;-73
2021/03/17 05:31:41;;;;;;;;;;;;;;;21.99;26.41;96057.50;5041181;28;562;-73
2021/03/17 05:34:07;;;;;;;;;;;;;;;22.11;26.24;96056.38;5041187;28;1473;-74
2021/03/17 05:36:32;;;;;;;;;;;;;;;22.02;26.28;96056.50;5041221;28;630;-73
2021/03/17 05:38:58;;;;;;;;;;;;;;;21.92;26.45;96053.03;5041565;28;627;-73
2021/03/17 05:41:23;;;;;;;;;;;;;;;22.03;26.30;96058.06;5040825;28;949;-73
2021/03/17 05:43:48;;;;;;;;;;;;;;;22.00;26.20;96053.38;5039718;28;1976;-74
2021/03/17 05:46:14;;;;;;;;;;;;;;;21.74;26.61;96050.47;5041372;28;856;-74
2021/03/17 05:48:39;;;;;;;;;;;;;;;22.22;26.03;96059.34;5040539;28;702;-74
2021/03/17 05:51:05;;;;;;;;;;;;;;;22.05;26.20;96055.50;5040559;28;875;-74
2021/03/17 05:53:30;;;;;;;;;;;;;;;21.94;26.67;96061.03;5040713;28;1457;-72
2021/03/17 05:56:02;;;;;;;;;;;;;;;22.04;26.44;96059.63;5040763;28;1072;-74
2021/03/17 05:58:28;;;;;;;;;;;;;;;22.20;25.91;96067.59;5040812;28;903;-75
2021/03/17 06:00:53;;;;;;;;;;;;;;;22.18;26.05;96064.47;5041154;28;875;-74
2021/03/17 06:03:19;;;;;;;;;;;;;;;22.12;26.14;96066.44;5041254;28;665;-73
2021/03/17 06:05:45;;;;;;;;;;;;;;;22.02;26.56;96079.94;5041129;28;1973;-73
2021/03/17 06:08:14;;;;;;;;;;;;;;;22.11;26.37;96073.38;5040704;28;686;-73
2021/03/17 06:10:40;;;;;;;;;;;;;;;21.97;26.58;96071.38;5038994;28;1052;-72
2021/03/17 06:13:09;;;;;;;;;;;;;;;22.14;26.09;96072.41;5040027;28;819;-71
2021/03/17 06:15:35;;;;;;;;;;;;;;;22.12;26.39;96066.44;5052766;28;1089;-73
2021/03/17 06:18:06;;;;;;;;;;;;;;;22.05;26.50;96072.50;5042943;28;642;-72
2021/03/17 06:20:31;;;;;;;;;;;;;;;22.12;26.33;96074.94;5043078;28;630;-72
2021/03/17 06:22:57;;;;;;;;;;;;;;;22.34;25.79;96071.63;5060641;28;675;-72
2021/03/17 06:25:22;;;;;;;;;;;;;;;22.10;26.28;96080.31;5060351;28;1902;-72
2021/03/17 06:27:47;;;;;;;;;;;;;;;22.07;25.93;96078.44;5043295;28;862;-72
2021/03/17 06:30:13;;;;;;;;;;;;;;;22.07;26.22;96084.09;5060203;28;1087;-71
2021/03/17 06:32:39;;;;;;;;;;;;;;;22.18;26.15;96080.69;5041935;28;976;-73
2021/03/17 06:35:39;;;;;;;;;;;;;;;21.92;26.36;96081.34;5040180;28;610;-72
2021/03/17 06:38:05;;;;;;;;;;;;;;;21.63;26.66;96087.88;4999271;28;1315;-73
2021/03/17 06:40:31;;;;;;;;;;;;;;;22.17;26.29;96084.78;5031084;28;1017;-73
2021/03/17 06:43:12;;;;;;;;;;;;;;;22.20;26.23;96095.91;5039936;28;960;-73
2021/03/17 06:45:39;;;;;;;;;;;;;;;22.15;26.27;96082.47;5040080;28;1965;-72
2021/03/17 06:48:23;;;;;;;;;;;;;;;22.16;25.98;96089.69;5040359;28;754;-73
2021/03/17 06:51:01;;;;;;;;;;;;;;;21.94;26.37;96084.47;5039961;28;698;-73
2021/03/17 06:53:36;;;;;;;;;;;;;;;22.11;26.08;96081.88;5039709;28;706;-73
2021/03/17 06:56:20;;;;;;;;;;;;;;;21.97;26.37;96079.88;5039888;28;1016;-72
2021/03/17 06:58:52;;;;;;;;;;;;;;;22.05;26.48;96078.16;5039475;28;884;-73
2021/03/17 07:01:34;;;;;;;;;;;;;;;21.87;26.30;96072.78;5039829;28;604;-72
2021/03/17 07:04:00;;;;;;;;;;;;;;;22.02;26.24;96079.16;5039645;28;1894;-73
2021/03/17 07:06:26;;;;;;;;;;;;;;;22.12;26.01;96083.44;5039897;28;626;-73
2021/03/17 07:08:51;;;;;;;;;;;;;;;21.99;26.14;96085.81;5039770;28;627;-74
2021/03/17 07:11:20;;;;;;;;;;;;;;;22.01;26.02;96083.25;5039413;28;1089;-73
2021/03/17 07:13:51;;;;;;;;;;;;;;;21.97;26.55;96088.38;5039630;28;861;-73
2021/03/17 07:16:26;;;;;;;;;;;;;;;21.93;26.24;96084.97;5019241;28;1180;-73
2021/03/17 07:18:52;;;;;;;;;;;;;;;21.72;26.41;96084.94;5020172;28;807;-73
2021/03/17 07:21:17;;;;;;;;;;;;;;;21.82;26.46;96092.03;5019856;28;667;-74
2021/03/17 07:23:44;;;;;;;;;;;;;;;22.03;25.96;96087.16;5021892;28;1914;-74
2021/03/17 07:26:19;;;;;;;;;;;;;;;22.17;25.79;96076.28;5023587;28;998;-74
2021/03/17 07:28:48;;;;;;;;;;;;;;;22.04;26.09;96079.44;5023389;28;930;-73
2021/03/17 07:31:14;;;;;;;;;;;;;;;21.97;26.25;96085.53;5023839;28;654;-73
2021/03/17 07:33:40;;;;;;;;;;;;;;;22.00;26.23;96081.72;5023106;28;1139;-72
2021/03/17 07:36:06;;;;;;;;;;;;;;;22.15;25.91;96087.34;5022174;28;1224;-73
2021/03/17 07:38:31;;;;;;;;;;;;;;;22.16;25.89;96092.50;5022489;28;1209;-73
2021/03/17 07:40:57;;;;;;;;;;;;;;;22.18;25.90;96089.19;5022486;28;1138;-73
2021/03/17 07:43:25;;;;;;;;;;;;;;;22.12;25.84;96074.94;5006290;28;926;-72
2021/03/17 07:45:51;;;;;;;;;;;;;;;22.14;25.96;96086.56;5023450;28;1898;-74
2021/03/17 07:48:16;;;;;;;;;;;;;;;22.02;26.30;96084.81;5022652;28;620;-73
2021/03/17 07:50:42;;;;;;;;;;;;;;;22.06;26.06;96088.22;5022524;28;635;-73
2021/03/17 07:53:08;;;;;;;;;;;;;;;22.00;26.14;96085.31;5022949;28;1229;-74
2021/03/17 07:55:34;;;;;;;;;;;;;;;21.65;26.56;96090.97;5023029;28;902;-74
2021/03/17 07:58:00;;;;;;;;;;;;;;;22.08;25.88;96088.53;5023152;28;912;-74
2021/03/17 08:00:25;;;;;;;;;;;;;;;22.01;25.98;96089.69;5022531;28;902;-74
2021/03/17 08:02:51;;;;;;;;;;;;;;;21.93;26.06;96087.78;5023118;28;603;-73
2021/03/17 08:05:17;;;;;;;;;;;;;;;21.94;26.16;96100.69;5005192;28;1963;-72
2021/03/17 08:07:44;;;;;;;;;;;;;;;22.00;25.88;96093.03;5022188;28;1178;-71
2021/03/17 08:10:10;;;;;;;;;;;;;;;22.01;26.11;96100.25;5005676;28;881;-72
2021/03/17 08:12:35;;;;;;;;;;;;;;;21.88;26.58;96094.16;5021540;28;944;-74
2021/03/17 08:15:01;;;;;;;;;;;;;;;22.04;26.17;96087.94;5037935;28;1241;-74
2021/03/17 08:17:33;;;;;;;;;;;;;;;21.95;26.38;96085.25;5045430;28;635;-74
2021/03/17 08:20:11;;;;;;;;;;;;;;;22.07;25.91;96086.94;5063008;28;630;-72
2021/03/17 08:22:38;;;;;;;;;;;;;;;22.00;26.22;96093.03;5062530;28;660;-72
2021/03/17 08:25:03;;;;;;;;;;;;;;;21.98;26.06;96089.94;5062155;28;1961;-73
2021/03/17 08:27:29;;;;;;;;;;;;;;;21.72;26.78;96096.25;5044916;28;984;-74
2021/03/17 08:30:02;;;;;;;;;;;;;;;21.82;26.33;96094.84;5062822;28;860;-74
2021/03/17 08:32:28;;;;;;;;;;;;;;;21.72;26.44;96101.91;5062400;28;690;-72
2021/03/17 08:34:55;;;;;;;;;;;;;;;21.79;26.49;96095.06;5044258;28;1297;-72
2021/03/17 08:37:20;;;;;;;;;;;;;;;21.91;26.53;96093.94;5045042;28;1130;-74
2021/03/17 08:39:47;;;;;;;;;;;;;;;21.85;26.46;96102.34;5061915;28;941;-74
2021/03/17 08:42:27;;;;;;;;;;;;;;;21.83;26.49;96102.06;5061975;28;846;-74
2021/03/17 08:44:53;;;;;;;;;;;;;;;21.59;26.97;96109.94;5061413;28;1902;-74
2021/03/17 08:47:19;;;;;;;;;;;;;;;22.32;26.20;96108.94;5062460;28;697;-73
2021/03/17 08:49:45;;;;;;;;;;;;;;;22.51;25.79;96103.00;5062340;28;678;-73
2021/03/17 08:52:10;;;;;;;;;;;;;;;22.50;25.48;96107.91;5062083;28;662;-74
2021/03/17 08:54:45;;;;;;;;;;;;;;;21.92;26.66;96104.00;5061864;28;817;-72
2021/03/17 08:57:11;;;;;;;;;;;;;;;21.72;26.80;96096.25;5044120;28;960;-73
2021/03/17 08:59:40;;;;;;;;;;;;;;;21.93;26.48;96099.13;5061790;28;968;-73
2021/03/17 09:02:06;;;;;;;;;;;;;;;22.01;26.40;96100.25;5061917;28;586;-74
2021/03/17 09:04:44;;;;;;;;;;;;;;;21.89;26.49;96104.22;5062042;28;1906;-73
2021/03/17 09:07:09;;;;;;;;;;;;;;;21.92;26.47;96103.22;5062238;28;598;-74
2021/03/17 09:09:45;;;;;;;;;;;;;;;21.88;26.31;96105.47;5061527;28;874;-74
2021/03/17 09:12:11;;;;;;;;;;;;;;;21.81;26.74;96103.81;5061475;28;919;-73
2021/03/17 09:14:38;;;;;;;;;;;;;;;21.88;26.56;96103.44;5061312;28;1028;-74
2021/03/17 09:17:14;;;;;;;;;;;;;;;22.01;26.14;96111.56;5061620;28;628;-74
2021/03/17 09:19:52;;;;;;;;;;;;;;;21.10;27.57;96108.59;5061895;28;706;-75
2021/03/17 09:22:37;;;;;;;;;;;;;;;21.20;27.38;96110.03;5061450;28;654;-72
2021/03/17 09:25:11;;;;;;;;;;;;;;;22.40;25.70;96114.97;5042841;28;1973;-74
2021/03/17 09:27:47;;;;;;;;;;;;;;;22.36;25.35;96115.19;5061009;28;886;-74
2021/03/17 09:30:13;;;;;;;;;;;;;;;21.91;26.11;96124.31;5061356;28;714;-72
2021/03/17 09:32:38;;;;;;;;;;;;;;;21.81;26.49;96127.28;5061214;28;615;-74
2021/03/17 09:35:04;;;;;;;;;;;;;;;21.73;26.65;96117.63;5061610;28;623;-74
2021/03/17 09:37:30;;;;;;;;;;;;;;;21.85;26.43;96121.38;5061185;28;695;-73
2021/03/17 09:39:55;;;;;;;;;;;;;;;21.85;26.56;96121.38;5060699;28;1067;-73
2021/03/17 09:42:20;;;;;;;;;;;;;;;21.85;26.45;96130.66;5060685;28;894;-74
2021/03/17 09:44:47;;;;;;;;;;;;;;;22.00;26.32;96121.34;5060885;28;1976;-72
2021/03/17 09:47:13;;;;;;;;;;;;;;;21.86;26.46;96105.97;5043598;28;1152;-74
2021/03/17 09:49:38;;;;;;;;;;;;;;;22.06;25.85;96125.03;5043571;28;705;-74
2021/03/17 09:52:04;;;;;;;;;;;;;;;22.00;26.17;96121.34;5060934;28;630;-74
2021/03/17 09:54:30;;;;;;;;;;;;;;;21.76;26.49;96119.47;5060399;28;929;-73
2021/03/17 09:56:56;;;;;;;;;;;;;;;21.73;26.63;96120.44;5060372;28;892;-72
2021/03/17 09:59:25;;;;;;;;;;;;;;;20.47;26.16;95888.34;5060680;28;998;-74
2021/03/17 10:01:53;;;;;;;;;;;;;;;21.88;26.27;96130.97;5043888;28;648;-72
2021/03/17 10:04:23;;;;;;;;;;;;;;;22.02;25.79;96135.78;5060682;28;1906;-73
2021/03/17 10:06:48;;;;;;;;;;;;;;;21.69;26.41;96134.03;5060540;28;741;-72
2021/03/17 10:09:14;;;;;;;;;;;;;;;22.02;26.25;96141.44;5060592;28;1014;-72
2021/03/17 10:11:40;;;;;;;;;;;;;;;21.33;27.29;96150.16;5060355;28;864;-74
2021/03/17 10:14:10;;;;;;;;;;;;;;;21.58;26.59;96154.44;5060351;28;998;-73
2021/03/17 10:16:35;;;;;;;;;;;;;;;21.64;26.46;96157.34;5060461;28;679;-74
2021/03/17 10:19:01;;;;;;;;;;;;;;;21.33;26.85;96144.50;5060707;28;662;-72
2021/03/17 10:21:26;;;;;;;;;;;;;;;21.45;27.00;96156.78;5043227;28;964;-73
2021/03/17 10:23:52;;;;;;;;;;;;;;;21.83;26.26;96152.25;5060252;28;1918;-72
2021/03/17 10:26:17;;;;;;;;;;;;;;;22.19;25.90;96156.69;5060305;28;956;-74
2021/03/17 10:28:42;;;;;;;;;;;;;;;21.97;25.97;96162.78;5043196;28;689;-74
2021/03/17 10:31:08;;;;;;;;;;;;;;;21.73;26.44;96148.75;5060620;28;645;-74
2021/03/17 10:33:33;;;;;;;;;;;;;;;22.03;25.70;96140.19;5060262;28;626;-74
2021/03/17 10:35:59;;;;;;;;;;;;;;;22.03;25.83;96145.88;5059841;28;1036;-74
2021/03/17 10:38:25;;;;;;;;;;;;;;;21.61;26.42;96154.75;5059916;28;886;-74
2021/03/17 10:40:51;;;;;;;;;;;;;;;21.62;26.48;96148.59;5060514;28;822;-74
2021/03/17 10:43:18;;;;;;;;;;;;;;;22.05;25.66;96160.31;5060011;28;652;-73
2021/03/17 10:45:53;;;;;;;;;;;;;;;22.14;25.51;96154.56;5059792;28;1971;-74
2021/03/17 10:48:22;;;;;;;;;;;;;;;22.13;25.49;96164.31;5041917;28;1147;-72
2021/03/17 10:50:50;;;;;;;;;;;;;;;21.76;26.08;96163.97;5058300;28;1059;-73
2021/03/17 10:53:25;;;;;;;;;;;;;;;21.58;26.08;96167.81;5025837;28;1201;-73
2021/03/17 10:55:54;;;;;;;;;;;;;;;21.50;26.46;96169.47;5059453;28;1261;-73
2021/03/17 10:58:21;;;;;;;;;;;;;;;22.27;25.38;96169.16;5058810;28;1375;-74
2021/03/17 11:00:49;;;;;;;;;;;;;;;21.67;25.99;96179.03;5042471;28;1277;-73
2021/03/17 11:03:41;;;;;;;;;;;;;;;21.66;25.95;96154.84;5059252;28;1182;-73
2021/03/17 11:06:22;;;;;;;;;;;;;;;22.06;25.56;96159.03;5053664;28;1970;-73
2021/03/17 11:09:03;;;;;;;;;;;;;;;22.16;25.49;96169.00;5042864;28;674;-72
2021/03/17 11:11:28;;;;;;;;;;;;;;;21.50;26.37;96158.13;5059727;28;623;-73
2021/03/17 11:13:54;;;;;;;;;;;;;;;21.62;26.34;96151.41;5056182;28;995;-74
2021/03/17 11:16:29;;;;;;;;;;;;;;;21.83;25.90;96153.03;5059772;28;1036;-73
2021/03/17 11:18:58;;;;;;;;;;;;;;;22.11;25.32;96166.84;5059246;28;902;-74
2021/03/17 11:21:25;;;;;;;;;;;;;;;22.33;24.99;96161.53;5042387;28;1238;-75
2021/03/17 11:23:51;;;;;;;;;;;;;;;22.36;24.88;96160.53;5042310;28;1906;-74
2021/03/17 11:26:22;;;;;;;;;;;;;;;22.40;25.15;96159.53;5059424;28;619;-74
2021/03/17 11:28:48;;;;;;;;;;;;;;;22.18;25.39;96154.34;5059490;28;646;-74
2021/03/17 11:31:20;;;;;;;;;;;;;;;21.75;25.89;96143.38;5059956;28;674;-74
2021/03/17 11:33:46;;;;;;;;;;;;;;;21.70;25.97;96155.38;5059250;28;837;-74
2021/03/17 11:36:11;;;;;;;;;;;;;;;22.10;25.18;96148.28;5059149;28;914;-74
2021/03/17 11:38:39;;;;;;;;;;;;;;;21.98;25.08;96147.34;5059412;28;801;-73
2021/03/17 11:41:05;;;;;;;;;;;;;;;21.64;25.99;96154.53;5059475;28;658;-74
2021/03/17 11:43:31;;;;;;;;;;;;;;;21.89;25.33;96161.63;5059742;28;630;-73
2021/03/17 11:45:58;;;;;;;;;;;;;;;21.90;25.53;96153.91;5059274;28;1906;-74
2021/03/17 11:48:23;;;;;;;;;;;;;;;22.32;24.79;96162.78;5008679;28;1306;-74
2021/03/17 11:50:50;;;;;;;;;;;;;;;22.32;24.61;96156.34;5059167;28;940;-73
2021/03/17 11:53:16;;;;;;;;;;;;;;;21.51;26.04;96159.72;5059157;28;1095;-74
2021/03/17 11:55:41;;;;;;;;;;;;;;;22.40;24.70;96165.22;5059700;28;559;-74
2021/03/17 11:58:07;;;;;;;;;;;;;;;21.64;25.99;96168.66;5042115;28;538;-74
2021/03/17 12:00:32;;;;;;;;;;;;;;;21.75;25.75;96159.59;5059154;28;653;-74
2021/03/17 12:02:57;;;;;;;;;;;;;;;21.53;26.12;96162.81;5058878;28;929;-74
2021/03/17 12:05:23;;;;;;;;;;;;;;;21.73;25.63;96176.28;5059098;28;1894;-73
2021/03/17 12:07:49;;;;;;;;;;;;;;;22.38;24.56;96184.75;5057710;28;936;-74
2021/03/17 12:10:14;;;;;;;;;;;;;;;22.06;25.25;96176.03;5060861;28;737;-71
2021/03/17 12:12:40;;;;;;;;;;;;;;;21.67;25.83;96196.00;5063050;28;611;-73
2021/03/17 12:15:06;;;;;;;;;;;;;;;21.28;26.45;96187.56;5062889;28;1006;-72
2021/03/17 12:17:32;;;;;;;;;;;;;;;21.65;25.96;96192.09;5062483;28;847;-73
2021/03/17 12:19:57;;;;;;;;;;;;;;;21.42;26.28;96203.03;5062496;28;926;-74
2021/03/17 12:22:23;;;;;;;;;;;;;;;21.60;25.90;96199.22;5045364;28;972;-74
2021/03/17 12:24:49;;;;;;;;;;;;;;;22.50;24.53;96203.47;5028689;28;1894;-71
2021/03/17 12:27:15;;;;;;;;;;;;;;;21.69;25.66;96201.94;5062755;28;677;-72
2021/03/17 12:29:40;;;;;;;;;;;;;;;22.24;24.97;96197.69;5045287;28;666;-73
2021/03/17 12:32:06;;;;;;;;;;;;;;;22.14;25.13;96216.88;5062551;28;941;-74
2021/03/17 12:34:32;;;;;;;;;;;;;;;21.84;25.39;96205.56;5062061;28;843;-72
2021/03/17 12:36:58;;;;;;;;;;;;;;;21.77;25.64;96211.63;5062195;28;838;-72
2021/03/17 12:39:23;;;;;;;;;;;;;;;22.17;25.01;96201.69;5062503;28;618;-74
2021/03/17 12:41:49;;;;;;;;;;;;;;;21.49;26.06;96213.19;5011990;28;832;-73
2021/03/17 12:44:14;;;;;;;;;;;;;;;21.80;25.54;96207.78;5062406;28;1957;-72
2021/03/17 12:46:40;;;;;;;;;;;;;;;22.24;24.79;96201.31;5061870;28;1068;-72
2021/03/17 12:49:05;;;;;;;;;;;;;;;22.00;25.42;96211.97;5061841;28;834;-73
2021/03/17 12:51:31;;;;;;;;;;;;;;;21.61;26.00;96220.63;5061874;28;834;-72
2021/03/17 12:53:56;;;;;;;;;;;;;;;22.36;24.40;96211.53;5062201;28;609;-73
2021/03/17 12:56:22;;;;;;;;;;;;;;;22.09;25.01;96218.31;5062120;28;629;-73
2021/03/17 12:58:47;;;;;;;;;;;;;;;21.97;25.19;96218.63;5061140;28;1127;-72
2021/03/17 13:01:22;;;;;;;;;;;;;;;21.68;25.55;96223.03;5062197;28;903;-73
2021/03/17 13:03:47;;;;;;;;;;;;;;;21.95;25.22;96215.50;5061582;28;1975;-71
2021/03/17 13:06:14;;;;;;;;;;;;;;;21.48;26.12;96222.94;5061867;28;825;-73
2021/03/17 13:08:39;;;;;;;;;;;;;;;22.40;24.28;96227.56;5061695;28;634;-72
2021/03/17 13:11:05;;;;;;;;;;;;;;;21.68;25.41;96237.19;5044719;28;673;-71